AAL321 KLAX-KPHX

Flight info

Callsign AAL321
Flight time N/A
Altitude 35000
Route DOTSS2 CNERY BLH HYDRR1
Aircraft A339/H-SADE1E2E3GHIJ3J5M1P2RWXY/LB2D1

Departure

Time 2026-04-26 04:07
Airport Los Angeles International Airport (KLAX)

Arrival

Time N/A
Airport Phoenix Sky Harbor International Airport (KPHX)
Time Latitude Longitude Altitude Speed Heading
2026-04-26 03:39 33.94044 -118.40606 131 ft 0 kts 261°
2026-04-26 03:43 33.94045 -118.40602 127 ft 2 kts 259°
2026-04-26 03:43 33.94059 -118.40597 126 ft 2 kts 319°
2026-04-26 03:44 33.94037 -118.40579 121 ft 2 kts 155°
2026-04-26 03:44 33.94043 -118.40582 132 ft 0 kts 153°
2026-04-26 03:44 33.94047 -118.40588 132 ft 2 kts 181°
2026-04-26 03:44 33.94061 -118.40587 127 ft 2 kts 220°
2026-04-26 03:45 33.94072 -118.40576 129 ft 2 kts 220°
2026-04-26 03:45 33.94081 -118.40564 133 ft 2 kts 205°
2026-04-26 03:45 33.94093 -118.40557 137 ft 2 kts 182°
2026-04-26 03:49 33.94092 -118.40557 131 ft 1 kts 182°
2026-04-26 03:49 33.94090 -118.40557 131 ft 0 kts 182°
2026-04-26 03:54 33.94084 -118.40557 126 ft 2 kts 182°
2026-04-26 03:54 33.94063 -118.40556 131 ft 4 kts 176°
2026-04-26 03:54 33.94013 -118.40550 127 ft 7 kts 174°
2026-04-26 03:54 33.93979 -118.40546 130 ft 8 kts 174°
2026-04-26 03:55 33.93917 -118.40539 128 ft 10 kts 174°
2026-04-26 03:55 33.93845 -118.40524 128 ft 11 kts 159°
2026-04-26 03:55 33.93832 -118.40451 128 ft 10 kts 83°
2026-04-26 03:55 33.93842 -118.40361 131 ft 12 kts 83°
2026-04-26 03:56 33.93853 -118.40252 126 ft 14 kts 83°
2026-04-26 03:56 33.93863 -118.40155 125 ft 0 kts 83°
2026-04-26 03:57 33.93865 -118.40142 124 ft 3 kts 83°
2026-04-26 03:57 33.93868 -118.40108 127 ft 5 kts 83°
2026-04-26 03:58 33.93874 -118.40054 131 ft 8 kts 83°
2026-04-26 03:58 33.93878 -118.40014 131 ft 0 kts 83°
2026-04-26 03:59 33.93879 -118.40007 131 ft 2 kts 83°
2026-04-26 03:59 33.93882 -118.39980 131 ft 5 kts 83°
2026-04-26 04:00 33.93887 -118.39932 127 ft 7 kts 83°
2026-04-26 04:00 33.93894 -118.39863 127 ft 10 kts 83°
2026-04-26 04:00 33.93903 -118.39773 129 ft 12 kts 83°
2026-04-26 04:00 33.93915 -118.39663 131 ft 14 kts 83°
2026-04-26 04:01 33.93928 -118.39535 127 ft 16 kts 83°
2026-04-26 04:01 33.93942 -118.39391 124 ft 18 kts 84°
2026-04-26 04:01 33.93955 -118.39232 123 ft 20 kts 84°
2026-04-26 04:01 33.93972 -118.39059 131 ft 22 kts 83°
2026-04-26 04:02 33.93990 -118.38875 131 ft 23 kts 83°
2026-04-26 04:02 33.94010 -118.38677 128 ft 24 kts 82°
2026-04-26 04:02 33.94034 -118.38469 129 ft 26 kts 82°
2026-04-26 04:02 33.94057 -118.38252 129 ft 27 kts 82°
2026-04-26 04:03 33.94076 -118.38047 131 ft 16 kts 92°
2026-04-26 04:03 33.94072 -118.38035 131 ft 0 kts 106°
2026-04-26 04:05 33.94071 -118.38031 131 ft 1 kts 107°
2026-04-26 04:05 33.94061 -118.38016 126 ft 3 kts 128°
2026-04-26 04:05 33.94039 -118.38005 125 ft 4 kts 159°
2026-04-26 04:06 33.94010 -118.38015 129 ft 5 kts 207°
2026-04-26 04:06 33.93985 -118.38045 129 ft 5 kts 235°
2026-04-26 04:06 33.93980 -118.38076 127 ft 1 kts 259°
2026-04-26 04:06 33.93978 -118.38091 131 ft 3 kts 259°
2026-04-26 04:07 33.93955 -118.38314 132 ft 71 kts 263°
2026-04-26 04:07 33.93857 -118.39264 133 ft 153 kts 263°
2026-04-26 04:07 33.93712 -118.40693 426 ft 187 kts 263°
2026-04-26 04:07 33.93547 -118.42326 915 ft 205 kts 263°
2026-04-26 04:08 33.93363 -118.44119 1315 ft 227 kts 262°
2026-04-26 04:08 33.92929 -118.46037 1920 ft 243 kts 245°
2026-04-26 04:08 33.91992 -118.47741 2880 ft 245 kts 231°
2026-04-26 04:08 33.90869 -118.49317 3729 ft 251 kts 231°
2026-04-26 04:09 33.89689 -118.50948 4242 ft 272 kts 231°
2026-04-26 04:09 33.88389 -118.52741 4361 ft 303 kts 231°
2026-04-26 04:09 33.86958 -118.54672 4479 ft 330 kts 226°
2026-04-26 04:09 33.84921 -118.56215 4980 ft 344 kts 204°
2026-04-26 04:10 33.82528 -118.56816 5234 ft 364 kts 186°
2026-04-26 04:10 33.79898 -118.56469 5014 ft 394 kts 167°
2026-04-26 04:10 33.77364 -118.55266 5895 ft 381 kts 158°
2026-04-26 04:10 33.74982 -118.53993 6920 ft 371 kts 158°
2026-04-26 04:11 33.72624 -118.52723 7591 ft 371 kts 159°
2026-04-26 04:11 33.70266 -118.51447 8204 ft 372 kts 159°
2026-04-26 04:11 33.67925 -118.50174 8729 ft 368 kts 159°
2026-04-26 04:11 33.65691 -118.48965 9213 ft 335 kts 160°
2026-04-26 04:12 33.63552 -118.47879 9729 ft 335 kts 162°
2026-04-26 04:12 33.61428 -118.46828 10189 ft 316 kts 162°
2026-04-26 04:12 33.59493 -118.45540 10649 ft 328 kts 145°
2026-04-26 04:12 33.58000 -118.43436 11123 ft 346 kts 123°
2026-04-26 04:13 33.57175 -118.40665 11612 ft 362 kts 101°
2026-04-26 04:13 33.57206 -118.37604 12101 ft 373 kts 79°
2026-04-26 04:13 33.58127 -118.34688 12586 ft 379 kts 58°
2026-04-26 04:13 33.59839 -118.32296 13095 ft 379 kts 36°
2026-04-26 04:14 33.62115 -118.30747 13599 ft 375 kts 17°
2026-04-26 04:14 33.63966 -118.29904 13956 ft 379 kts 17°
2026-04-26 04:14 33.65054 -118.29365 14155 ft 382 kts 20°
2026-04-26 04:15 33.67303 -118.27637 14603 ft 390 kts 39°
2026-04-26 04:15 33.69039 -118.25104 15069 ft 396 kts 59°
2026-04-26 04:15 33.70046 -118.22019 15543 ft 399 kts 79°
2026-04-26 04:15 33.70212 -118.18698 16055 ft 400 kts 98°
2026-04-26 04:16 33.69622 -118.15443 16608 ft 399 kts 110°
2026-04-26 04:16 33.68841 -118.12268 17130 ft 404 kts 109°
2026-04-26 04:16 33.68141 -118.08973 17678 ft 408 kts 105°
2026-04-26 04:16 33.67580 -118.05608 18226 ft 413 kts 103°
2026-04-26 04:17 33.67185 -118.02176 18673 ft 420 kts 94°
2026-04-26 04:17 33.67473 -117.98655 19152 ft 426 kts 82°
2026-04-26 04:17 33.68002 -117.95173 19578 ft 432 kts 81°
2026-04-26 04:17 33.68553 -117.91613 20032 ft 436 kts 81°
2026-04-26 04:18 33.69121 -117.87998 20490 ft 441 kts 81°
2026-04-26 04:18 33.69704 -117.84356 20948 ft 445 kts 81°
2026-04-26 04:18 33.70302 -117.80674 21400 ft 450 kts 81°
2026-04-26 04:18 33.70912 -117.76974 21873 ft 455 kts 81°
2026-04-26 04:19 33.71530 -117.73273 22328 ft 459 kts 81°
2026-04-26 04:19 33.72172 -117.69484 22793 ft 464 kts 81°
2026-04-26 04:19 33.72606 -117.65634 23237 ft 463 kts 93°
2026-04-26 04:19 33.72301 -117.61807 23677 ft 457 kts 109°
2026-04-26 04:20 33.71286 -117.58273 24022 ft 449 kts 124°
2026-04-26 04:20 33.69619 -117.55195 24502 ft 434 kts 139°
2026-04-26 04:20 33.67447 -117.52761 24946 ft 419 kts 154°
2026-04-26 04:20 33.64941 -117.51108 25349 ft 404 kts 169°
2026-04-26 04:21 33.62269 -117.50319 25805 ft 388 kts 183°
2026-04-26 04:21 33.59609 -117.50312 26232 ft 382 kts 191°
2026-04-26 04:21 33.56939 -117.50462 26700 ft 384 kts 191°
2026-04-26 04:21 33.54258 -117.50607 27138 ft 387 kts 191°
2026-04-26 04:22 33.51559 -117.50750 27576 ft 389 kts 191°
2026-04-26 04:22 33.48880 -117.50861 28078 ft 389 kts 191°
2026-04-26 04:22 33.46164 -117.50945 28490 ft 392 kts 191°
2026-04-26 04:22 33.43418 -117.51028 28879 ft 395 kts 191°
2026-04-26 04:23 33.40659 -117.51108 29291 ft 398 kts 191°
2026-04-26 04:23 33.37875 -117.51186 29725 ft 399 kts 191°
2026-04-26 04:23 33.35128 -117.51253 30093 ft 403 kts 191°
2026-04-26 04:23 33.32271 -117.50964 30380 ft 422 kts 179°
2026-04-26 04:24 33.29403 -117.49891 30739 ft 442 kts 168°
2026-04-26 04:24 33.26659 -117.48051 31052 ft 463 kts 156°
2026-04-26 04:24 33.24159 -117.45467 31407 ft 484 kts 145°
2026-04-26 04:24 33.22052 -117.42283 31723 ft 505 kts 133°
2026-04-26 04:25 33.20379 -117.38499 32016 ft 525 kts 122°
2026-04-26 04:25 33.19256 -117.34270 32323 ft 542 kts 110°
2026-04-26 04:25 33.18749 -117.29745 32591 ft 557 kts 98°
2026-04-26 04:25 33.18895 -117.25078 32839 ft 568 kts 87°
2026-04-26 04:26 33.19708 -117.20417 33063 ft 576 kts 76°
2026-04-26 04:26 33.21146 -117.15993 33223 ft 581 kts 64°
2026-04-26 04:26 33.23209 -117.11838 33422 ft 582 kts 53°
2026-04-26 04:26 33.25817 -117.08135 33561 ft 580 kts 41°
2026-04-26 04:27 33.28880 -117.05030 33763 ft 574 kts 30°
2026-04-26 04:27 33.32273 -117.02589 33987 ft 566 kts 21°
2026-04-26 04:27 33.35759 -117.00391 34191 ft 565 kts 21°
2026-04-26 04:27 33.39244 -116.98199 34410 ft 564 kts 21°
2026-04-26 04:28 33.42665 -116.96053 34725 ft 560 kts 21°
2026-04-26 04:28 33.49547 -116.91782 34920 ft 555 kts 21°
2026-04-26 04:29 33.56426 -116.87527 34972 ft 555 kts 21°
2026-04-26 04:29 33.63230 -116.83327 34962 ft 543 kts 21°
2026-04-26 04:29 33.66544 -116.81265 34967 ft 528 kts 21°
2026-04-26 04:30 33.69753 -116.79259 34980 ft 512 kts 21°
2026-04-26 04:30 33.72891 -116.77324 34956 ft 499 kts 21°
2026-04-26 04:30 33.75991 -116.75412 34880 ft 502 kts 21°
2026-04-26 04:31 33.82263 -116.71562 34861 ft 508 kts 21°
2026-04-26 04:31 33.88551 -116.67705 34878 ft 510 kts 21°
2026-04-26 04:32 33.94858 -116.63927 34860 ft 510 kts 20°
2026-04-26 04:32 33.97994 -116.61764 34859 ft 526 kts 31°
2026-04-26 04:32 34.00854 -116.58922 34856 ft 540 kts 42°
2026-04-26 04:32 34.03325 -116.55455 34863 ft 551 kts 54°
2026-04-26 04:33 34.05305 -116.51468 34850 ft 557 kts 66°
2026-04-26 04:33 34.06711 -116.47110 34833 ft 556 kts 77°
2026-04-26 04:33 34.07484 -116.42558 34830 ft 549 kts 88°
2026-04-26 04:33 34.07605 -116.37987 34818 ft 540 kts 99°
2026-04-26 04:34 34.07090 -116.33601 34824 ft 529 kts 111°
2026-04-26 04:34 34.05959 -116.29438 34821 ft 516 kts 122°
2026-04-26 04:34 34.04274 -116.25688 34754 ft 501 kts 134°
2026-04-26 04:35 34.00255 -116.18813 34828 ft 512 kts 129°
2026-04-26 04:35 33.97403 -116.10802 34805 ft 527 kts 117°
2026-04-26 04:36 33.95280 -116.02349 34796 ft 531 kts 114°
2026-04-26 04:36 33.93240 -115.93804 34807 ft 530 kts 115°
2026-04-26 04:37 33.91169 -115.85264 34797 ft 530 kts 115°
2026-04-26 04:37 33.89425 -115.78166 34786 ft 534 kts 115°
2026-04-26 04:38 33.87299 -115.69539 34779 ft 537 kts 115°
2026-04-26 04:38 33.85188 -115.60971 34782 ft 534 kts 116°
2026-04-26 04:39 33.83068 -115.52414 34784 ft 533 kts 116°
2026-04-26 04:39 33.80941 -115.43864 34773 ft 534 kts 116°
2026-04-26 04:40 33.78816 -115.35347 34789 ft 534 kts 116°
2026-04-26 04:40 33.76672 -115.26781 34764 ft 534 kts 116°
2026-04-26 04:41 33.74518 -115.18203 34773 ft 535 kts 116°
2026-04-26 04:41 33.72372 -115.09681 34780 ft 536 kts 116°
2026-04-26 04:42 33.70201 -115.01091 34837 ft 536 kts 116°
2026-04-26 04:42 33.68042 -114.92559 34799 ft 532 kts 116°
2026-04-26 04:43 33.65889 -114.84104 34806 ft 533 kts 116°
2026-04-26 04:43 33.63712 -114.75582 34802 ft 536 kts 116°
2026-04-26 04:44 33.61511 -114.66986 34758 ft 538 kts 116°
2026-04-26 04:44 33.60425 -114.62743 34446 ft 537 kts 116°
2026-04-26 04:44 33.59325 -114.58452 33804 ft 537 kts 116°
2026-04-26 04:44 33.58221 -114.54163 32766 ft 537 kts 116°
2026-04-26 04:45 33.57111 -114.49867 31652 ft 538 kts 116°
2026-04-26 04:45 33.56004 -114.45581 30589 ft 536 kts 116°
2026-04-26 04:45 33.54902 -114.41317 29505 ft 533 kts 116°
2026-04-26 04:45 33.53803 -114.37067 28462 ft 530 kts 116°
2026-04-26 04:46 33.52733 -114.32925 27829 ft 521 kts 116°
2026-04-26 04:46 33.51669 -114.28814 27244 ft 511 kts 116°
2026-04-26 04:46 33.50619 -114.24778 26599 ft 503 kts 116°
2026-04-26 04:46 33.49579 -114.20793 25941 ft 496 kts 116°
2026-04-26 04:47 33.48563 -114.16904 25317 ft 491 kts 116°
2026-04-26 04:47 33.47562 -114.13058 25114 ft 474 kts 116°
2026-04-26 04:47 33.46584 -114.09349 24927 ft 458 kts 116°
2026-04-26 04:47 33.45684 -114.05794 24830 ft 447 kts 114°
2026-04-26 04:48 33.44250 -113.98515 24391 ft 449 kts 111°
2026-04-26 04:48 33.43562 -113.94878 24187 ft 446 kts 111°
2026-04-26 04:48 33.42856 -113.91239 24087 ft 450 kts 112°
2026-04-26 04:49 33.42133 -113.87586 23975 ft 449 kts 112°
2026-04-26 04:49 33.41411 -113.83963 23866 ft 447 kts 112°
2026-04-26 04:49 33.40684 -113.80339 23761 ft 446 kts 112°
2026-04-26 04:49 33.39964 -113.76770 23705 ft 445 kts 112°
2026-04-26 04:50 33.39238 -113.73175 23446 ft 443 kts 112°
2026-04-26 04:50 33.38506 -113.69569 22715 ft 446 kts 111°
2026-04-26 04:50 33.37778 -113.65974 22152 ft 442 kts 111°
2026-04-26 04:50 33.37067 -113.62460 21557 ft 436 kts 111°
2026-04-26 04:51 33.36358 -113.58964 21084 ft 427 kts 111°
2026-04-26 04:51 33.35666 -113.55544 20656 ft 419 kts 111°
2026-04-26 04:51 33.34972 -113.52151 20221 ft 419 kts 111°
2026-04-26 04:51 33.34279 -113.48774 19791 ft 416 kts 111°
2026-04-26 04:52 33.33600 -113.45467 19373 ft 411 kts 111°
2026-04-26 04:52 33.32975 -113.42137 18908 ft 409 kts 108°
2026-04-26 04:52 33.32415 -113.38814 18492 ft 404 kts 108°
2026-04-26 04:52 33.31871 -113.35526 18083 ft 400 kts 107°
2026-04-26 04:53 33.31332 -113.32310 17674 ft 397 kts 108°
2026-04-26 04:53 33.30784 -113.29092 17269 ft 394 kts 108°
2026-04-26 04:53 33.30231 -113.25884 16878 ft 391 kts 108°